createdAt,value
2018-11-04T00:01:42.276Z,11.27
2018-11-04T00:04:12.988Z,11.77
2018-11-04T00:06:43.295Z,9.63
2018-11-04T00:09:13.824Z,15.73
2018-11-04T00:11:44.009Z,13.27
2018-11-04T00:14:14.728Z,12.07
2018-11-04T00:16:44.909Z,11.83
2018-11-04T00:19:15.203Z,17.17
2018-11-04T00:21:45.328Z,13.03
2018-11-04T00:24:15.600Z,11.27
2018-11-04T00:26:46.458Z,18.00
2018-11-04T00:29:16.753Z,14.87
2018-11-04T00:31:46.868Z,13.03
2018-11-04T00:34:17.013Z,17.00
2018-11-04T00:36:47.268Z,20.10
2018-11-04T00:39:17.603Z,12.93
2018-11-04T00:41:47.724Z,12.97
2018-11-04T00:44:18.337Z,12.83
2018-11-04T00:46:48.553Z,15.57
2018-11-04T00:49:18.737Z,15.77
2018-11-04T00:51:48.868Z,13.90
2018-11-04T00:54:19.108Z,9.77
2018-11-04T00:56:49.128Z,12.23
2018-11-04T00:59:19.473Z,9.83
2018-11-04T01:01:49.778Z,13.73
2018-11-04T01:04:20.028Z,11.37
2018-11-04T01:06:50.261Z,11.97
2018-11-04T01:09:21.239Z,13.03
2018-11-04T01:11:51.382Z,11.67
2018-11-04T01:14:21.653Z,11.40
2018-11-04T01:16:51.782Z,8.40
2018-11-04T01:19:22.212Z,10.10
2018-11-04T01:21:52.517Z,10.50
2018-11-04T01:24:22.659Z,15.37
2018-11-04T01:26:59.478Z,14.23
2018-11-04T01:29:29.738Z,10.13
2018-11-04T01:31:59.903Z,16.60
2018-11-04T01:34:30.197Z,11.23
2018-11-04T01:37:00.438Z,14.40
2018-11-04T01:39:30.561Z,8.80
2018-11-04T01:42:00.897Z,9.07
2018-11-04T01:44:31.822Z,18.67
2018-11-04T01:47:02.123Z,10.07
2018-11-04T01:49:32.492Z,9.07
2018-11-04T01:52:02.797Z,11.77
2018-11-04T01:54:33.129Z,8.93
2018-11-04T01:57:03.312Z,12.60
2018-11-04T01:59:33.673Z,15.47
2018-11-04T02:02:03.838Z,14.90
2018-11-04T02:04:33.924Z,12.37
2018-11-04T02:07:04.216Z,11.70
2018-11-04T02:09:34.252Z,9.63
2018-11-04T02:12:04.333Z,9.93
2018-11-04T02:14:34.513Z,8.77
2018-11-04T02:17:04.682Z,13.43
2018-11-04T02:19:34.880Z,17.83
2018-11-04T02:22:05.008Z,12.73
2018-11-04T02:24:35.492Z,14.13
2018-11-04T02:27:06.653Z,11.10
2018-11-04T02:29:37.248Z,12.30
2018-11-04T02:32:08.153Z,17.23
2018-11-04T02:34:38.293Z,11.10
2018-11-04T02:37:08.912Z,12.23
2018-11-04T02:39:39.463Z,15.53
2018-11-04T02:42:10.153Z,13.83
2018-11-04T02:44:40.578Z,13.63
2018-11-04T02:47:11.854Z,13.37
2018-11-04T02:49:42.095Z,11.63
2018-11-04T02:52:12.383Z,16.53
2018-11-04T02:54:43.463Z,11.13
2018-11-04T02:57:13.620Z,15.20
2018-11-04T02:59:43.901Z,8.77
2018-11-04T03:02:14.153Z,19.30
2018-11-04T03:04:44.515Z,10.23
2018-11-04T03:07:14.854Z,12.03
2018-11-04T03:09:44.937Z,16.90
2018-11-04T03:12:15.148Z,16.87
2018-11-04T03:14:45.462Z,11.50
2018-11-04T03:17:15.628Z,11.43
2018-11-04T03:19:45.673Z,10.47
2018-11-04T03:22:15.934Z,14.03
2018-11-04T03:24:46.336Z,19.70
2018-11-04T03:27:16.578Z,17.80
2018-11-04T03:29:46.773Z,11.67
2018-11-04T03:32:17.133Z,11.80
2018-11-04T03:34:47.498Z,13.77
2018-11-04T03:37:17.808Z,14.57
2018-11-04T03:39:48.108Z,16.03
2018-11-04T03:42:18.212Z,16.73
2018-11-04T03:44:48.337Z,19.63
2018-11-04T03:47:18.612Z,16.80
2018-11-04T03:49:49.103Z,10.80
2018-11-04T03:52:20.258Z,19.60
2018-11-04T03:54:50.368Z,12.90
2018-11-04T03:57:20.558Z,11.67
2018-11-04T03:59:50.817Z,12.37
2018-11-04T04:02:20.968Z,15.47
2018-11-04T04:04:51.107Z,12.50
2018-11-04T04:07:21.293Z,14.60
2018-11-04T04:09:51.558Z,13.03
2018-11-04T04:12:21.793Z,10.77
2018-11-04T04:14:52.243Z,16.13
2018-11-04T04:17:22.478Z,17.53
2018-11-04T04:19:52.975Z,12.33
2018-11-04T04:22:23.238Z,12.47
2018-11-04T04:24:53.432Z,16.40
2018-11-04T04:27:23.668Z,13.27
2018-11-04T04:29:53.863Z,13.17
2018-11-04T04:32:24.058Z,20.77
2018-11-04T04:34:54.402Z,24.63
2018-11-04T04:37:24.628Z,11.30
2018-11-04T04:39:54.777Z,15.97
2018-11-04T04:42:24.966Z,16.37
2018-11-04T04:44:55.205Z,16.33
2018-11-04T04:47:25.357Z,22.53
2018-11-04T04:49:55.860Z,19.70
2018-11-04T04:52:25.997Z,16.20
2018-11-04T04:54:56.456Z,27.10
2018-11-04T04:57:26.718Z,20.17
2018-11-04T04:59:57.223Z,31.20
2018-11-04T05:02:27.628Z,21.20
2018-11-04T05:04:57.995Z,22.97
2018-11-04T05:07:28.192Z,23.80
2018-11-04T05:09:58.591Z,18.50
2018-11-04T05:12:28.837Z,26.87
2018-11-04T05:14:59.497Z,16.03
2018-11-04T05:17:29.797Z,17.33
2018-11-04T05:19:59.952Z,24.07
2018-11-04T05:22:30.233Z,17.87
2018-11-04T05:25:00.613Z,20.97
2018-11-04T05:27:30.964Z,23.90
2018-11-04T05:30:01.313Z,15.37
2018-11-04T05:32:31.743Z,24.33
2018-11-04T05:35:01.967Z,22.37
2018-11-04T05:37:32.263Z,40.67
2018-11-04T05:40:02.557Z,24.40
2018-11-04T05:42:32.954Z,22.77
2018-11-04T05:45:03.277Z,33.53
2018-11-04T05:47:33.502Z,34.30
2018-11-04T05:50:03.628Z,22.73
2018-11-04T05:52:33.997Z,21.50
2018-11-04T05:55:04.598Z,20.80
2018-11-04T05:57:35.432Z,23.77
2018-11-04T06:00:06.118Z,20.13
2018-11-04T06:02:36.308Z,19.97
2018-11-04T06:05:07.439Z,27.63
2018-11-04T06:07:37.683Z,29.80
2018-11-04T06:10:08.504Z,26.10
2018-11-04T06:12:38.863Z,38.90
2018-11-04T06:15:09.953Z,48.90
2018-11-04T06:17:39.968Z,25.10
2018-11-04T06:20:12.276Z,22.33
2018-11-04T06:22:43.717Z,17.33
2018-11-04T06:25:13.969Z,24.77
2018-11-04T06:27:44.589Z,20.57
2018-11-04T06:30:15.417Z,30.70
2018-11-04T06:32:45.688Z,25.43
2018-11-04T06:35:15.932Z,26.40
2018-11-04T06:37:46.413Z,18.73
2018-11-04T06:40:17.017Z,14.17
2018-11-04T06:42:47.232Z,19.10
2018-11-04T06:45:17.572Z,23.33
2018-11-04T06:47:47.793Z,11.23
2018-11-04T06:50:17.943Z,19.27
2018-11-04T06:52:48.093Z,25.67
2018-11-04T06:55:18.467Z,18.73
2018-11-04T06:57:48.618Z,28.23
2018-11-04T07:00:18.948Z,17.97
2018-11-04T07:02:49.032Z,16.50
2018-11-04T07:05:19.323Z,16.83
2018-11-04T07:07:49.493Z,28.33
2018-11-04T07:10:19.858Z,14.83
2018-11-04T07:12:50.203Z,16.70
2018-11-04T07:15:20.633Z,32.77
2018-11-04T07:17:50.853Z,19.33
2018-11-04T07:20:21.153Z,16.00
2018-11-04T07:22:51.413Z,20.33
2018-11-04T07:25:21.822Z,13.73
2018-11-04T07:27:51.953Z,30.80
2018-11-04T07:30:22.528Z,22.47
2018-11-04T07:32:52.922Z,21.70
2018-11-04T07:35:23.203Z,28.90
2018-11-04T07:37:53.438Z,30.93
2018-11-04T07:40:23.773Z,17.80
2018-11-04T07:42:54.134Z,13.23
2018-11-04T07:45:24.443Z,21.30
2018-11-04T07:47:54.633Z,23.73
2018-11-04T07:50:24.919Z,25.83
2018-11-04T07:52:55.328Z,17.60
2018-11-04T07:55:25.863Z,26.47
2018-11-04T07:57:56.123Z,19.43
2018-11-04T08:00:26.423Z,14.67
2018-11-04T08:02:56.573Z,25.20
2018-11-04T08:05:26.708Z,17.90
2018-11-04T08:07:57.068Z,19.67
2018-11-04T08:10:27.283Z,28.80
2018-11-04T08:12:57.588Z,17.77
2018-11-04T08:15:27.903Z,19.93
2018-11-04T08:17:58.248Z,19.00
2018-11-04T08:20:28.393Z,18.27
2018-11-04T08:22:58.643Z,15.70
2018-11-04T08:25:28.773Z,19.07
2018-11-04T08:27:59.290Z,16.30
2018-11-04T08:30:29.503Z,24.10
2018-11-04T08:32:59.747Z,23.67
2018-11-04T08:35:29.933Z,13.40
2018-11-04T08:38:00.385Z,16.60
2018-11-04T08:40:30.632Z,16.83
2018-11-04T08:43:02.052Z,20.80
2018-11-04T08:45:32.295Z,22.23
2018-11-04T08:48:02.628Z,17.17
2018-11-04T08:50:32.876Z,20.60
2018-11-04T08:53:03.169Z,30.37
2018-11-04T08:55:33.349Z,16.83
2018-11-04T08:58:03.675Z,22.87
2018-11-04T09:00:34.023Z,24.50
2018-11-04T09:03:04.408Z,17.30
2018-11-04T09:05:34.609Z,14.80
2018-11-04T09:08:04.999Z,20.47
2018-11-04T09:10:35.421Z,16.07
2018-11-04T09:13:05.953Z,17.70
2018-11-04T09:15:36.338Z,14.97
2018-11-04T09:18:06.865Z,16.87
2018-11-04T09:20:37.188Z,21.57
2018-11-04T09:23:07.893Z,14.67
2018-11-04T09:25:38.273Z,14.10
2018-11-04T09:28:08.593Z,20.47
2018-11-04T09:30:39.053Z,22.10
2018-11-04T09:33:09.474Z,25.40
2018-11-04T09:35:39.843Z,16.63
2018-11-04T09:38:10.563Z,20.47
2018-11-04T09:40:40.848Z,20.70
2018-11-04T09:43:11.363Z,18.23
2018-11-04T09:45:41.890Z,17.73
2018-11-04T09:48:12.553Z,18.53
2018-11-04T09:50:43.034Z,20.10
2018-11-04T09:53:13.433Z,20.13
2018-11-04T09:55:43.803Z,11.10
2018-11-04T09:58:14.795Z,26.20
2018-11-04T10:00:45.463Z,23.47
2018-11-04T10:03:15.803Z,25.87
2018-11-04T10:05:45.974Z,20.80
2018-11-04T10:08:16.523Z,20.67
2018-11-04T10:10:46.824Z,21.93
2018-11-04T10:13:17.150Z,23.83
2018-11-04T10:15:47.488Z,26.73
2018-11-04T10:18:18.534Z,22.33
2018-11-04T10:20:49.458Z,20.53
2018-11-04T10:23:19.708Z,25.43
2018-11-04T10:25:49.944Z,18.00
2018-11-04T10:28:20.363Z,25.60
2018-11-04T10:30:50.875Z,21.13
2018-11-04T10:33:21.290Z,17.00
2018-11-04T10:35:51.628Z,26.83
2018-11-04T10:38:22.183Z,19.47
2018-11-04T10:40:52.549Z,21.47
2018-11-04T10:43:22.906Z,18.97
2018-11-04T10:45:53.229Z,21.83
2018-11-04T10:48:23.424Z,14.80
2018-11-04T10:50:53.633Z,20.37
2018-11-04T10:53:24.093Z,16.50
2018-11-04T10:55:54.268Z,19.30
2018-11-04T10:58:24.538Z,15.23
2018-11-04T11:00:59.633Z,11.77
2018-11-04T11:03:30.308Z,27.27
2018-11-04T11:06:00.571Z,17.67
2018-11-04T11:08:31.273Z,28.23
2018-11-04T11:11:01.632Z,20.47
2018-11-04T11:13:31.899Z,11.93
2018-11-04T11:16:02.258Z,17.03
2018-11-04T11:18:32.698Z,23.20
2018-11-04T11:21:03.042Z,19.97
2018-11-04T11:23:33.283Z,24.37
2018-11-04T11:26:03.634Z,16.13
2018-11-04T11:28:34.128Z,13.37
2018-11-04T11:31:04.434Z,23.27
2018-11-04T11:33:34.680Z,17.03
2018-11-04T11:36:04.949Z,33.90
2018-11-04T11:38:35.354Z,23.63
2018-11-04T11:41:05.614Z,16.80
2018-11-04T11:43:36.424Z,26.43
2018-11-04T11:46:07.251Z,17.93
2018-11-04T11:48:37.544Z,20.60
2018-11-04T11:51:07.844Z,23.00
2018-11-04T11:53:38.538Z,13.63
2018-11-04T11:56:08.932Z,13.97
2018-11-04T11:58:39.558Z,16.50
2018-11-04T12:01:10.190Z,24.97
2018-11-04T12:03:40.773Z,18.60
2018-11-04T12:06:11.333Z,13.73
2018-11-04T12:08:41.557Z,14.73
2018-11-04T12:11:12.113Z,18.03
2018-11-04T12:13:42.638Z,20.00
2018-11-04T12:16:13.538Z,25.67
2018-11-04T12:18:43.728Z,23.57
2018-11-04T12:21:14.202Z,9.90
2018-11-04T12:23:44.768Z,16.77
2018-11-04T12:26:15.157Z,17.10
2018-11-04T12:28:45.697Z,19.83
2018-11-04T12:31:16.387Z,20.50
2018-11-04T12:33:46.597Z,21.87
2018-11-04T12:36:16.793Z,24.17
2018-11-04T12:38:47.363Z,16.43
2018-11-04T12:41:17.860Z,24.90
2018-11-04T12:43:48.042Z,19.57
2018-11-04T12:46:18.592Z,21.93
2018-11-04T12:48:48.852Z,24.67
2018-11-04T12:51:19.188Z,27.27
2018-11-04T12:53:49.297Z,28.87
2018-11-04T12:56:19.592Z,28.10
2018-11-04T12:58:50.061Z,17.97
2018-11-04T13:01:20.868Z,18.27
2018-11-04T13:03:51.142Z,24.20
2018-11-04T13:06:21.587Z,23.00
2018-11-04T13:08:51.968Z,24.20
2018-11-04T13:11:22.694Z,18.23
2018-11-04T13:13:53.457Z,26.83
2018-11-04T13:16:23.913Z,21.90
2018-11-04T13:18:54.502Z,21.93
2018-11-04T13:21:25.541Z,20.37
2018-11-04T13:23:55.963Z,37.83
2018-11-04T13:26:26.687Z,37.27
2018-11-04T13:28:57.194Z,49.13
2018-11-04T13:31:27.580Z,51.00
2018-11-04T13:33:58.175Z,41.30
2018-11-04T13:36:28.922Z,35.00
2018-11-04T13:38:59.507Z,26.10
2018-11-04T13:41:30.132Z,11.33
2018-11-04T13:44:00.418Z,10.77
2018-11-04T13:46:30.737Z,8.00
2018-11-04T13:49:01.013Z,9.50
2018-11-04T13:51:31.458Z,9.43
2018-11-04T13:54:02.142Z,12.27
2018-11-04T13:56:32.651Z,7.30
2018-11-04T13:59:03.227Z,10.03
2018-11-04T14:01:33.592Z,7.17
2018-11-04T14:04:03.898Z,12.67
2018-11-04T14:06:34.348Z,9.23
2018-11-04T14:09:06.072Z,8.37
2018-11-04T14:11:36.355Z,7.70
2018-11-04T14:14:06.672Z,7.17
2018-11-04T14:16:36.973Z,6.47
2018-11-04T14:19:07.454Z,7.13
2018-11-04T14:21:37.752Z,13.77
2018-11-04T14:24:08.058Z,10.40
2018-11-04T14:26:39.103Z,6.67
2018-11-04T14:29:09.773Z,9.70
2018-11-04T14:31:40.033Z,13.90
2018-11-04T14:34:10.176Z,15.50
2018-11-04T14:36:40.513Z,14.17
2018-11-04T14:39:11.870Z,10.27
2018-11-04T14:41:42.213Z,7.50
2018-11-04T14:44:12.669Z,10.53
2018-11-04T14:46:43.303Z,11.20
2018-11-04T14:49:13.558Z,9.30
2018-11-04T14:51:43.963Z,11.53
2018-11-04T14:54:14.459Z,7.17
2018-11-04T14:56:45.078Z,12.20
2018-11-04T14:59:15.628Z,8.83
2018-11-04T15:01:46.088Z,15.37
2018-11-04T15:04:16.888Z,13.03
2018-11-04T15:06:47.135Z,25.03
2018-11-04T15:09:17.263Z,24.00
2018-11-04T15:11:47.528Z,22.10
2018-11-04T15:14:18.308Z,16.37
2018-11-04T15:16:48.615Z,20.57
2018-11-04T15:19:19.793Z,18.23
2018-11-04T15:21:50.033Z,17.00
2018-11-04T15:24:20.378Z,17.53
2018-11-04T15:26:50.427Z,20.30
2018-11-04T15:29:21.688Z,23.73
2018-11-04T15:31:51.920Z,27.00
2018-11-04T15:34:22.635Z,23.97
2018-11-04T15:36:52.812Z,29.90
2018-11-04T15:39:23.133Z,17.30
2018-11-04T15:41:53.352Z,26.10
2018-11-04T15:44:23.693Z,25.67
2018-11-04T15:46:54.226Z,18.87
2018-11-04T15:49:24.475Z,17.63
2018-11-04T15:51:54.673Z,32.63
2018-11-04T15:54:25.234Z,26.63
2018-11-04T15:56:59.605Z,23.87
2018-11-04T15:59:29.853Z,20.30
2018-11-04T16:02:00.468Z,23.67
2018-11-04T16:04:30.963Z,18.30
2018-11-04T16:07:01.524Z,26.63
2018-11-04T16:09:31.913Z,24.60
2018-11-04T16:12:02.244Z,31.07
2018-11-04T16:14:32.608Z,27.93
2018-11-04T16:17:02.959Z,18.13
2018-11-04T16:19:33.658Z,16.97
2018-11-04T16:22:04.143Z,51.20
2018-11-04T16:24:34.734Z,51.77
2018-11-04T16:27:05.030Z,55.03
2018-11-04T16:29:35.289Z,54.53
2018-11-04T16:32:05.683Z,50.73
2018-11-04T16:34:35.804Z,29.83
2018-11-04T16:37:06.185Z,29.50
2018-11-04T16:39:36.468Z,18.37
2018-11-04T16:42:06.614Z,16.03
2018-11-04T16:44:37.512Z,19.50
2018-11-04T16:47:07.693Z,26.57
2018-11-04T16:49:37.973Z,28.40
2018-11-04T16:52:08.043Z,20.20
2018-11-04T16:54:38.448Z,24.73
2018-11-04T16:57:10.693Z,30.57
2018-11-04T16:59:41.353Z,30.67
2018-11-04T17:02:11.608Z,28.10
2018-11-04T17:04:41.830Z,28.87
2018-11-04T17:07:11.968Z,25.27
2018-11-04T17:09:42.273Z,26.33
2018-11-04T17:12:12.453Z,30.47
2018-11-04T17:14:42.804Z,20.90
2018-11-04T17:17:13.254Z,24.27
2018-11-04T17:19:43.553Z,21.43
2018-11-04T17:22:13.944Z,27.50
2018-11-04T17:24:44.328Z,29.57
2018-11-04T17:27:14.693Z,34.63
2018-11-04T17:29:44.909Z,17.77
2018-11-04T17:32:15.293Z,30.97
2018-11-04T17:34:45.569Z,17.00
2018-11-04T17:37:15.953Z,26.70
2018-11-04T17:39:46.219Z,24.80
2018-11-04T17:42:16.783Z,25.87
2018-11-04T17:44:47.292Z,22.17
2018-11-04T17:47:17.693Z,20.93
2018-11-04T17:49:47.943Z,39.77
2018-11-04T17:52:18.283Z,24.47
2018-11-04T17:54:48.498Z,33.30
2018-11-04T17:57:18.953Z,33.03
2018-11-04T17:59:49.304Z,24.20
2018-11-04T18:02:19.768Z,58.70
2018-11-04T18:04:50.148Z,25.43
2018-11-04T18:07:20.568Z,29.47
2018-11-04T18:09:51.189Z,20.93
2018-11-04T18:12:21.688Z,24.57
2018-11-04T18:14:52.138Z,20.83
2018-11-04T18:17:22.758Z,18.97
2018-11-04T18:19:53.138Z,22.43
2018-11-04T18:22:23.593Z,24.90
2018-11-04T18:24:53.909Z,38.33
2018-11-04T18:27:26.424Z,20.53
2018-11-04T18:29:56.753Z,18.53
2018-11-04T18:32:27.198Z,14.40
2018-11-04T18:34:57.313Z,17.13
2018-11-04T18:37:27.703Z,22.53
2018-11-04T18:39:58.072Z,26.90
2018-11-04T18:42:28.278Z,36.00
2018-11-04T18:44:58.515Z,19.63
2018-11-04T18:47:28.998Z,21.77
2018-11-04T18:49:59.298Z,24.53
2018-11-04T18:52:30.052Z,17.63
2018-11-04T18:55:00.468Z,19.90
2018-11-04T18:57:30.723Z,15.40
2018-11-04T19:00:01.120Z,18.00
2018-11-04T19:02:32.413Z,26.43
2018-11-04T19:05:02.964Z,19.63
2018-11-04T19:07:33.553Z,19.07
2018-11-04T19:10:03.743Z,21.97
2018-11-04T19:16:16.234Z,15.63
2018-11-04T19:18:47.285Z,21.07
2018-11-04T19:21:17.664Z,20.67
2018-11-04T19:23:47.864Z,23.77
2018-11-04T19:26:18.454Z,18.40
2018-11-04T19:28:48.993Z,25.27
2018-11-04T19:31:19.348Z,20.63
2018-11-04T19:33:49.830Z,19.50
2018-11-04T19:36:20.548Z,18.10
2018-11-04T19:38:51.741Z,15.77
2018-11-04T19:41:22.213Z,48.47
2018-11-04T19:43:52.978Z,37.03
2018-11-04T19:46:23.488Z,22.20
2018-11-04T19:48:55.659Z,23.67
2018-11-04T19:51:27.908Z,24.83
2018-11-04T19:53:59.923Z,18.93
2018-11-04T19:56:30.409Z,24.03
2018-11-04T19:59:03.285Z,24.70
2018-11-04T20:01:35.429Z,28.20
2018-11-04T20:04:05.853Z,28.33
2018-11-04T20:06:36.368Z,27.30
2018-11-04T20:09:16.723Z,20.37
2018-11-04T20:11:48.048Z,28.07
2018-11-04T20:14:20.423Z,20.77
2018-11-04T20:16:51.883Z,18.07
2018-11-04T20:19:27.511Z,29.03
2018-11-04T20:21:57.823Z,23.07
2018-11-04T20:25:35.947Z,19.77
2018-11-04T20:28:06.508Z,13.03
2018-11-04T20:30:36.799Z,14.73
2018-11-04T20:33:09.103Z,19.60
2018-11-04T20:35:39.823Z,17.40
2018-11-04T20:38:10.105Z,22.83
2018-11-04T20:40:46.098Z,15.27
2018-11-04T20:43:16.683Z,22.47
2018-11-04T20:45:47.137Z,16.17
2018-11-04T20:48:22.373Z,15.77
2018-11-04T20:51:01.038Z,15.27
2018-11-04T20:53:32.143Z,14.87
2018-11-04T20:56:07.704Z,20.63
2018-11-04T20:58:38.173Z,21.53
2018-11-04T21:01:08.649Z,17.50
2018-11-04T21:03:38.998Z,22.27
2018-11-04T21:06:09.383Z,19.67
2018-11-04T21:08:40.086Z,17.67
2018-11-04T21:11:10.346Z,19.30
2018-11-04T21:16:25.267Z,16.60
2018-11-04T21:18:55.788Z,16.93
2018-11-04T21:21:26.378Z,17.13
2018-11-04T21:23:56.984Z,14.93
2018-11-04T21:26:27.918Z,16.47
2018-11-04T21:28:58.600Z,23.23
2018-11-04T21:31:28.877Z,20.63
2018-11-04T21:33:59.467Z,22.13
2018-11-04T21:36:29.666Z,21.37
2018-11-04T21:39:00.169Z,13.37
2018-11-04T21:41:30.413Z,24.53
2018-11-04T21:44:00.834Z,13.80
2018-11-04T21:46:31.202Z,21.43
2018-11-04T21:49:01.528Z,17.00
2018-11-04T21:51:32.359Z,28.33
2018-11-04T21:54:02.603Z,22.77
2018-11-04T21:56:33.284Z,25.70
2018-11-04T21:59:03.426Z,16.70
2018-11-04T22:01:34.184Z,19.33
2018-11-04T22:04:04.704Z,15.27
2018-11-04T22:06:35.093Z,19.20
2018-11-04T22:09:06.308Z,20.50
2018-11-04T22:11:36.574Z,10.70
2018-11-04T22:14:06.980Z,16.83
2018-11-04T22:16:37.638Z,8.50
2018-11-04T22:19:07.945Z,16.93
2018-11-04T22:21:50.368Z,17.23
2018-11-04T22:24:22.508Z,17.47
2018-11-04T22:26:54.448Z,19.67
2018-11-04T22:29:26.515Z,16.00
2018-11-04T22:31:58.298Z,21.53
2018-11-04T22:34:28.613Z,15.03
2018-11-04T22:36:59.083Z,8.17
2018-11-04T22:39:29.543Z,11.57
2018-11-04T22:41:59.817Z,12.03
2018-11-04T22:44:30.329Z,11.33
2018-11-04T22:47:00.689Z,10.90
2018-11-04T22:49:31.243Z,18.30
2018-11-04T22:52:01.609Z,8.33
2018-11-04T22:54:32.001Z,18.93
2018-11-04T22:57:02.328Z,14.47
2018-11-04T22:59:32.899Z,13.07
2018-11-04T23:02:03.249Z,20.10
2018-11-04T23:04:38.693Z,12.07
2018-11-04T23:07:09.077Z,11.47
2018-11-04T23:09:39.523Z,11.23
2018-11-04T23:12:09.879Z,26.60
2018-11-04T23:14:40.268Z,14.20
2018-11-04T23:17:10.574Z,17.53
2018-11-04T23:19:41.071Z,14.30
2018-11-04T23:22:11.533Z,23.80
2018-11-04T23:24:42.134Z,18.17
2018-11-04T23:27:12.613Z,11.90
2018-11-04T23:29:43.053Z,15.43
2018-11-04T23:32:13.285Z,13.63
2018-11-04T23:34:43.710Z,15.30
2018-11-04T23:37:14.008Z,16.40
2018-11-04T23:39:44.399Z,9.87
2018-11-04T23:42:14.698Z,15.20
2018-11-04T23:44:45.133Z,12.30
2018-11-04T23:47:15.301Z,11.73
2018-11-04T23:49:45.667Z,19.27
2018-11-04T23:52:15.947Z,14.27
2018-11-04T23:54:46.328Z,19.87
2018-11-04T23:57:16.637Z,13.57
2018-11-04T23:59:46.998Z,22.97
